Time;durP1;ratioP1;P1;durP2;ratioP2;P2;SDS_P1;SDS_P2;PMS_P1;PMS_P2;Temp;Humidity;BMP_temperature;BMP_pressure;BME280_temperature;BME280_humidity;BME280_pressure;Samples;Min_cycle;Max_cycle;Signal;HPM_P1;HPM_P2
2022/07/13 00:02:19;;;;;;;;;;;19.70;99.90;;;;;;4791511;29;19929;-66
2022/07/13 00:04:44;;;;;;;;;;;19.60;99.90;;;;;;4796795;29;19929;-67
2022/07/13 00:07:10;;;;;;;;;;;19.50;99.90;;;;;;4806040;29;19932;-65
2022/07/13 00:09:35;;;;;;;;;;;19.50;99.90;;;;;;4801381;29;19926;-65
2022/07/13 00:12:01;;;;;;;;;;;19.50;99.90;;;;;;4796308;29;19981;-65
2022/07/13 00:14:26;;;;;;;;;;;19.50;99.90;;;;;;4795980;29;20429;-65
2022/07/13 00:16:52;;;;;;;;;;;19.50;99.90;;;;;;4806180;29;19945;-65
2022/07/13 00:19:18;;;;;;;;;;;19.50;99.90;;;;;;4806718;29;20379;-65
2022/07/13 00:21:43;;;;;;;;;;;19.40;99.90;;;;;;4806849;29;19925;-66
2022/07/13 00:24:09;;;;;;;;;;;19.50;99.90;;;;;;4805475;29;19932;-66
2022/07/13 00:26:34;;;;;;;;;;;19.40;99.90;;;;;;4786873;29;19932;-67
2022/07/13 00:29:00;;;;;;;;;;;19.50;99.90;;;;;;4797717;29;19970;-66
2022/07/13 00:31:25;;;;;;;;;;;19.50;99.90;;;;;;4804967;29;19981;-66
2022/07/13 00:33:50;;;;;;;;;;;19.40;99.90;;;;;;4805438;29;19974;-65
2022/07/13 00:36:16;;;;;;;;;;;19.50;99.90;;;;;;4794553;29;20363;-67
2022/07/13 00:38:41;;;;;;;;;;;19.50;99.90;;;;;;4805651;29;19982;-66
2022/07/13 00:41:07;;;;;;;;;;;19.50;99.90;;;;;;4789980;29;20375;-66
2022/07/13 00:43:32;;;;;;;;;;;19.50;99.90;;;;;;4804603;29;20011;-64
2022/07/13 00:45:58;;;;;;;;;;;19.50;99.90;;;;;;4789278;29;19944;-65
2022/07/13 00:48:24;;;;;;;;;;;19.50;99.90;;;;;;4805587;29;20378;-65
2022/07/13 00:50:50;;;;;;;;;;;19.50;99.90;;;;;;4804831;29;19925;-66
2022/07/13 00:53:17;;;;;;;;;;;19.50;99.90;;;;;;4803931;29;19955;-67
2022/07/13 00:55:43;;;;;;;;;;;19.50;99.90;;;;;;4804967;29;19925;-66
2022/07/13 00:58:09;;;;;;;;;;;19.50;99.90;;;;;;4795641;29;20375;-66
2022/07/13 01:00:36;;;;;;;;;;;19.50;99.90;;;;;;4804526;29;20024;-66
2022/07/13 01:03:02;;;;;;;;;;;19.50;99.90;;;;;;4788716;29;19925;-66
2022/07/13 01:05:28;;;;;;;;;;;19.50;99.90;;;;;;4804514;29;19925;-66
2022/07/13 01:07:53;;;;;;;;;;;19.50;99.90;;;;;;4805965;29;19933;-67
2022/07/13 01:10:20;;;;;;;;;;;19.50;99.90;;;;;;4809105;29;19972;-67
2022/07/13 01:12:46;;;;;;;;;;;19.50;99.90;;;;;;4800177;29;19925;-66
2022/07/13 01:15:11;;;;;;;;;;;19.50;99.90;;;;;;4800100;29;19932;-67
2022/07/13 01:17:37;;;;;;;;;;;19.50;99.90;;;;;;4792942;29;20285;-65
2022/07/13 01:20:04;;;;;;;;;;;19.60;99.90;;;;;;4804184;29;19926;-66
2022/07/13 01:22:32;;;;;;;;;;;19.50;99.90;;;;;;4795766;29;19925;-67
2022/07/13 01:24:58;;;;;;;;;;;19.80;99.90;;;;;;4808835;29;19957;-66
2022/07/13 01:27:23;;;;;;;;;;;19.40;99.90;;;;;;4809116;29;20286;-65
2022/07/13 01:29:49;;;;;;;;;;;19.40;99.90;;;;;;4801971;29;19926;-65
2022/07/13 01:32:14;;;;;;;;;;;19.50;99.90;;;;;;4806575;29;19941;-65
2022/07/13 01:34:40;;;;;;;;;;;19.40;99.90;;;;;;4808493;29;19980;-66
2022/07/13 01:37:05;;;;;;;;;;;19.50;99.90;;;;;;4806296;29;19980;-66
2022/07/13 01:39:31;;;;;;;;;;;19.50;99.90;;;;;;4809399;29;20298;-66
2022/07/13 01:41:56;;;;;;;;;;;19.50;99.90;;;;;;4809147;29;19932;-66
2022/07/13 01:44:22;;;;;;;;;;;19.50;99.90;;;;;;4809040;29;19979;-66
2022/07/13 01:46:47;;;;;;;;;;;19.50;99.90;;;;;;4806631;29;19937;-66
2022/07/13 01:49:13;;;;;;;;;;;19.50;99.90;;;;;;4799597;29;20367;-66
2022/07/13 01:51:38;;;;;;;;;;;19.40;99.90;;;;;;4807888;29;19950;-66
2022/07/13 01:54:04;;;;;;;;;;;19.40;99.90;;;;;;4808984;29;19925;-66
2022/07/13 01:56:29;;;;;;;;;;;19.40;99.90;;;;;;4805689;29;19929;-66
2022/07/13 01:58:55;;;;;;;;;;;19.40;99.90;;;;;;4800374;29;19968;-65
2022/07/13 02:01:21;;;;;;;;;;;19.50;99.90;;;;;;4806904;29;19925;-66
2022/07/13 02:03:46;;;;;;;;;;;19.50;99.90;;;;;;4808216;29;19974;-66
2022/07/13 02:06:12;;;;;;;;;;;19.40;99.90;;;;;;4807502;29;19925;-66
2022/07/13 02:08:37;;;;;;;;;;;19.40;99.90;;;;;;4791990;29;19932;-65
2022/07/13 02:11:03;;;;;;;;;;;19.50;99.90;;;;;;4808435;29;19925;-67
2022/07/13 02:13:29;;;;;;;;;;;19.40;99.90;;;;;;4775361;30;20016;-66
2022/07/13 02:15:54;;;;;;;;;;;19.40;99.90;;;;;;4799513;29;19976;-66
2022/07/13 02:18:20;;;;;;;;;;;19.40;99.90;;;;;;4807109;29;19925;-66
2022/07/13 02:20:46;;;;;;;;;;;19.40;99.90;;;;;;4808622;29;19925;-66
2022/07/13 02:23:11;;;;;;;;;;;19.50;99.90;;;;;;4807704;29;19964;-65
2022/07/13 02:25:37;;;;;;;;;;;19.40;99.90;;;;;;4807679;29;19961;-66
2022/07/13 02:28:04;;;;;;;;;;;19.50;99.90;;;;;;4807789;29;19921;-66
2022/07/13 02:30:30;;;;;;;;;;;19.40;99.90;;;;;;4790714;29;20047;-66
2022/07/13 02:32:55;;;;;;;;;;;19.50;99.90;;;;;;4806951;29;20281;-66
2022/07/13 02:35:21;;;;;;;;;;;19.50;99.90;;;;;;4807891;29;19925;-66
2022/07/13 02:37:46;;;;;;;;;;;19.50;99.90;;;;;;4790982;29;20401;-65
2022/07/13 02:40:12;;;;;;;;;;;19.50;99.90;;;;;;4808196;29;19925;-66
2022/07/13 02:42:38;;;;;;;;;;;19.50;99.90;;;;;;4791190;29;19925;-66
2022/07/13 02:45:04;;;;;;;;;;;19.50;99.90;;;;;;4807312;29;19928;-67
2022/07/13 02:47:30;;;;;;;;;;;19.50;99.90;;;;;;4807726;29;20007;-65
2022/07/13 02:49:55;;;;;;;;;;;19.50;99.90;;;;;;4808177;29;19975;-66
2022/07/13 02:52:21;;;;;;;;;;;19.30;99.90;;;;;;4790156;29;19960;-66
2022/07/13 02:54:46;;;;;;;;;;;19.50;99.90;;;;;;4805904;29;19940;-67
2022/07/13 02:57:12;;;;;;;;;;;19.50;99.90;;;;;;4789760;29;19925;-66
2022/07/13 02:59:37;;;;;;;;;;;19.50;99.90;;;;;;4774690;30;19975;-66
2022/07/13 03:02:03;;;;;;;;;;;19.50;99.90;;;;;;4785861;29;20008;-66
2022/07/13 03:04:29;;;;;;;;;;;19.50;99.90;;;;;;4791798;29;20375;-67
2022/07/13 03:06:55;;;;;;;;;;;19.50;99.90;;;;;;4806478;29;19925;-66
2022/07/13 03:09:20;;;;;;;;;;;19.50;99.90;;;;;;4807975;29;19925;-66
2022/07/13 03:11:45;;;;;;;;;;;19.50;99.90;;;;;;4807389;29;20291;-66
2022/07/13 03:14:11;;;;;;;;;;;19.50;99.90;;;;;;4808019;29;19979;-66
2022/07/13 03:16:36;;;;;;;;;;;19.60;99.90;;;;;;4806581;29;20366;-66
2022/07/13 03:19:02;;;;;;;;;;;19.50;99.90;;;;;;4806832;29;19925;-67
2022/07/13 03:21:29;;;;;;;;;;;19.50;99.90;;;;;;4807425;29;20409;-67
2022/07/13 03:23:57;;;;;;;;;;;19.50;99.90;;;;;;4791403;29;19932;-66
2022/07/13 03:26:23;;;;;;;;;;;19.50;99.90;;;;;;4807024;29;20018;-66
2022/07/13 03:28:49;;;;;;;;;;;19.50;99.90;;;;;;4791206;29;20005;-66
2022/07/13 03:31:14;;;;;;;;;;;19.50;99.90;;;;;;4806939;29;19998;-66
2022/07/13 03:33:40;;;;;;;;;;;19.50;99.90;;;;;;4807060;29;19925;-67
2022/07/13 03:36:06;;;;;;;;;;;19.50;99.90;;;;;;4789428;29;20426;-65
2022/07/13 03:38:32;;;;;;;;;;;19.50;99.90;;;;;;4804917;29;19974;-66
2022/07/13 03:40:57;;;;;;;;;;;19.50;99.90;;;;;;4805952;29;19972;-67
2022/07/13 03:43:23;;;;;;;;;;;19.50;99.90;;;;;;4805786;29;19964;-66
2022/07/13 03:45:48;;;;;;;;;;;19.50;99.90;;;;;;4805759;29;20386;-67
2022/07/13 03:48:16;;;;;;;;;;;19.50;99.90;;;;;;4775007;29;19932;-67
2022/07/13 03:50:42;;;;;;;;;;;19.50;99.90;;;;;;4806725;29;19964;-66
2022/07/13 03:53:08;;;;;;;;;;;19.50;99.90;;;;;;4807035;29;20009;-66
2022/07/13 03:55:33;;;;;;;;;;;19.50;99.90;;;;;;4805495;29;20457;-66
2022/07/13 03:57:59;;;;;;;;;;;19.60;99.90;;;;;;4806990;29;19936;-67
2022/07/13 04:00:24;;;;;;;;;;;19.50;99.90;;;;;;4806207;29;19941;-66
2022/07/13 04:02:50;;;;;;;;;;;19.50;99.90;;;;;;4806726;29;19967;-66
2022/07/13 04:05:15;;;;;;;;;;;19.50;99.90;;;;;;4805385;29;20371;-66
2022/07/13 04:07:41;;;;;;;;;;;19.50;99.90;;;;;;4807063;29;19925;-66
2022/07/13 04:10:06;;;;;;;;;;;19.50;99.90;;;;;;4806891;29;19925;-67
2022/07/13 04:12:32;;;;;;;;;;;19.50;99.90;;;;;;4806979;29;20294;-65
2022/07/13 04:14:57;;;;;;;;;;;19.50;99.90;;;;;;4803045;29;19933;-66
2022/07/13 04:17:23;;;;;;;;;;;19.50;99.90;;;;;;4806029;29;19925;-68
2022/07/13 04:19:48;;;;;;;;;;;19.50;99.90;;;;;;4790733;29;20012;-66
2022/07/13 04:22:14;;;;;;;;;;;19.40;99.90;;;;;;4789284;29;20324;-66
2022/07/13 04:24:39;;;;;;;;;;;19.50;99.90;;;;;;4805417;29;19925;-66
2022/07/13 04:27:05;;;;;;;;;;;19.40;99.90;;;;;;4805739;29;19925;-66
2022/07/13 04:29:30;;;;;;;;;;;19.40;99.90;;;;;;4804585;29;19925;-66
2022/07/13 04:31:56;;;;;;;;;;;19.50;99.90;;;;;;4805333;29;20252;-67
2022/07/13 04:34:22;;;;;;;;;;;19.60;99.90;;;;;;4789992;29;19925;-67
2022/07/13 04:36:47;;;;;;;;;;;19.50;99.90;;;;;;4804883;29;19925;-68
2022/07/13 04:39:13;;;;;;;;;;;19.60;99.90;;;;;;4805390;29;19935;-67
2022/07/13 04:41:39;;;;;;;;;;;19.60;99.90;;;;;;4781223;30;19937;-67
2022/07/13 04:44:04;;;;;;;;;;;19.60;99.90;;;;;;4791929;29;19925;-67
2022/07/13 04:46:30;;;;;;;;;;;19.60;99.90;;;;;;4804586;29;19925;-67
2022/07/13 04:48:55;;;;;;;;;;;19.70;99.90;;;;;;4804560;29;19932;-68
2022/07/13 04:51:21;;;;;;;;;;;19.60;99.90;;;;;;4789905;29;20001;-67
2022/07/13 04:53:46;;;;;;;;;;;19.70;99.90;;;;;;4806722;29;19952;-67
2022/07/13 04:56:12;;;;;;;;;;;19.70;99.90;;;;;;4805327;29;19925;-67
2022/07/13 04:58:38;;;;;;;;;;;19.80;99.90;;;;;;4804983;29;19933;-65
2022/07/13 05:01:06;;;;;;;;;;;19.90;99.90;;;;;;4803441;29;19925;-67
2022/07/13 05:03:32;;;;;;;;;;;19.90;99.90;;;;;;4777418;30;20331;-66
2022/07/13 05:05:57;;;;;;;;;;;20.00;99.90;;;;;;4788523;29;19926;-67
2022/07/13 05:08:23;;;;;;;;;;;20.10;99.90;;;;;;4802363;29;20029;-67
2022/07/13 05:10:49;;;;;;;;;;;20.10;99.90;;;;;;4802560;29;19987;-66
2022/07/13 05:13:14;;;;;;;;;;;20.20;99.90;;;;;;4805986;29;19954;-67
2022/07/13 05:15:40;;;;;;;;;;;20.20;99.90;;;;;;4802024;29;19925;-67
2022/07/13 05:18:05;;;;;;;;;;;20.30;99.90;;;;;;4787589;29;19924;-67
2022/07/13 05:20:31;;;;;;;;;;;20.40;99.90;;;;;;4787460;29;19932;-66
2022/07/13 05:22:57;;;;;;;;;;;20.40;99.90;;;;;;4797120;29;19932;-68
2022/07/13 05:25:22;;;;;;;;;;;20.50;99.90;;;;;;4796543;29;19925;-66
2022/07/13 05:27:48;;;;;;;;;;;20.60;99.90;;;;;;4812569;29;19929;-65
2022/07/13 05:30:13;;;;;;;;;;;20.60;99.90;;;;;;4811475;29;19964;-66
2022/07/13 05:32:39;;;;;;;;;;;20.70;99.90;;;;;;4804413;29;19936;-68
2022/07/13 05:38:45;;;;;;;;;;;20.90;99.90;;;;;;4797425;29;19920;-66
2022/07/13 05:41:11;;;;;;;;;;;21.10;99.90;;;;;;4802767;29;19925;-67
2022/07/13 05:43:37;;;;;;;;;;;21.20;99.90;;;;;;4787596;29;20355;-66
2022/07/13 05:46:04;;;;;;;;;;;21.30;99.90;;;;;;4789525;29;19941;-67
2022/07/13 05:48:29;;;;;;;;;;;21.40;99.90;;;;;;4800831;29;19968;-66
2022/07/13 05:50:55;;;;;;;;;;;21.50;99.90;;;;;;4805838;29;20409;-67
2022/07/13 05:53:20;;;;;;;;;;;21.60;99.90;;;;;;4803567;29;19953;-67
2022/07/13 05:55:46;;;;;;;;;;;21.70;99.90;;;;;;4792943;29;20302;-69
2022/07/13 05:58:13;;;;;;;;;;;21.70;99.90;;;;;;4809094;29;19928;-69
2022/07/13 06:00:38;;;;;;;;;;;21.90;99.90;;;;;;4792715;29;19932;-67
2022/07/13 06:03:04;;;;;;;;;;;21.80;99.90;;;;;;4808499;29;19925;-66
2022/07/13 06:05:29;;;;;;;;;;;22.00;99.90;;;;;;4809210;29;19948;-67
2022/07/13 06:07:55;;;;;;;;;;;22.20;99.90;;;;;;4791684;29;19925;-69
2022/07/13 06:10:21;;;;;;;;;;;22.30;99.90;;;;;;4809100;29;19929;-68
2022/07/13 06:12:47;;;;;;;;;;;22.50;99.90;;;;;;4807967;29;19925;-68
2022/07/13 06:15:12;;;;;;;;;;;22.60;99.90;;;;;;4807783;29;20302;-65
2022/07/13 06:17:38;;;;;;;;;;;22.80;99.90;;;;;;4808087;29;20304;-66
2022/07/13 06:20:04;;;;;;;;;;;22.90;99.90;;;;;;4801365;29;19973;-68
2022/07/13 06:22:29;;;;;;;;;;;23.10;99.90;;;;;;4807869;29;20267;-66
2022/07/13 06:24:55;;;;;;;;;;;23.30;99.90;;;;;;4808760;29;19931;-66
2022/07/13 06:27:20;;;;;;;;;;;23.50;99.90;;;;;;4805017;29;19933;-69
2022/07/13 06:29:46;;;;;;;;;;;23.70;99.90;;;;;;4808667;29;19925;-67
2022/07/13 06:32:11;;;;;;;;;;;24.10;99.90;;;;;;4806757;29;19972;-66
2022/07/13 06:34:37;;;;;;;;;;;24.20;99.90;;;;;;4790271;29;19954;-66
2022/07/13 06:37:02;;;;;;;;;;;24.30;99.90;;;;;;4791857;29;19929;-67
2022/07/13 06:39:28;;;;;;;;;;;24.20;99.90;;;;;;4807236;29;19928;-67
2022/07/13 06:41:53;;;;;;;;;;;24.10;99.90;;;;;;4791720;29;20019;-67
2022/07/13 06:44:19;;;;;;;;;;;24.20;99.90;;;;;;4795096;29;19974;-68
2022/07/13 06:46:44;;;;;;;;;;;24.20;99.90;;;;;;4783197;29;19926;-68
2022/07/13 06:49:10;;;;;;;;;;;24.30;99.90;;;;;;4801026;29;20027;-66
2022/07/13 06:51:36;;;;;;;;;;;24.40;99.90;;;;;;4787296;29;21608;-68
2022/07/13 06:54:01;;;;;;;;;;;24.50;99.90;;;;;;4808328;29;19983;-67
2022/07/13 06:56:27;;;;;;;;;;;24.50;99.90;;;;;;4805629;29;19964;-67
2022/07/13 06:58:53;;;;;;;;;;;24.60;99.90;;;;;;4776625;30;19925;-69
2022/07/13 07:01:19;;;;;;;;;;;24.70;99.90;;;;;;4774117;30;19937;-66
2022/07/13 07:03:44;;;;;;;;;;;24.90;99.90;;;;;;4789408;29;20019;-68
2022/07/13 07:06:10;;;;;;;;;;;24.90;99.90;;;;;;4779663;29;20339;-68
2022/07/13 07:08:35;;;;;;;;;;;24.90;99.90;;;;;;4800207;29;19925;-67
2022/07/13 07:11:01;;;;;;;;;;;25.00;99.90;;;;;;4784597;29;20381;-67
2022/07/13 07:13:26;;;;;;;;;;;25.20;99.90;;;;;;4802365;29;20128;-67
2022/07/13 07:15:52;;;;;;;;;;;25.20;99.90;;;;;;4783642;29;19926;-67
2022/07/13 07:18:18;;;;;;;;;;;25.10;99.90;;;;;;4802073;29;19958;-66
2022/07/13 07:20:43;;;;;;;;;;;24.90;99.90;;;;;;4806141;29;20006;-67
2022/07/13 07:23:09;;;;;;;;;;;24.60;99.90;;;;;;4790370;29;19925;-66
2022/07/13 07:25:34;;;;;;;;;;;24.50;99.90;;;;;;4790994;29;19929;-67
2022/07/13 07:28:00;;;;;;;;;;;24.30;99.90;;;;;;4790235;29;20019;-67
2022/07/13 07:30:26;;;;;;;;;;;24.20;99.90;;;;;;4807855;29;19947;-65
2022/07/13 07:32:51;;;;;;;;;;;24.10;99.90;;;;;;4805490;29;20287;-66
2022/07/13 07:35:17;;;;;;;;;;;24.00;99.90;;;;;;4808004;29;19929;-67
2022/07/13 07:37:42;;;;;;;;;;;23.90;99.90;;;;;;4800824;29;19932;-67
2022/07/13 07:40:08;;;;;;;;;;;23.90;99.90;;;;;;4804337;29;20012;-66
2022/07/13 07:42:35;;;;;;;;;;;23.90;99.90;;;;;;4802123;29;19976;-65
2022/07/13 07:45:00;;;;;;;;;;;23.90;99.90;;;;;;4806278;29;19925;-67
2022/07/13 07:47:26;;;;;;;;;;;23.90;99.90;;;;;;4798447;29;19925;-67
2022/07/13 07:49:52;;;;;;;;;;;24.00;99.90;;;;;;4799887;29;20031;-67
2022/07/13 07:52:18;;;;;;;;;;;24.10;99.90;;;;;;4789027;29;19929;-67
2022/07/13 07:54:45;;;;;;;;;;;24.10;99.90;;;;;;4805314;29;20343;-67
2022/07/13 07:57:11;;;;;;;;;;;24.20;99.90;;;;;;4807053;29;19925;-66
2022/07/13 07:59:36;;;;;;;;;;;24.30;99.90;;;;;;4803557;29;20264;-67
2022/07/13 08:02:02;;;;;;;;;;;24.40;99.90;;;;;;4805381;29;19925;-66
2022/07/13 08:04:27;;;;;;;;;;;24.60;99.90;;;;;;4799200;29;19993;-66
2022/07/13 08:06:53;;;;;;;;;;;24.80;99.90;;;;;;4788952;29;19943;-66
2022/07/13 08:09:18;;;;;;;;;;;25.10;99.90;;;;;;4791003;29;20358;-68
2022/07/13 08:11:44;;;;;;;;;;;25.20;99.90;;;;;;4790946;29;20362;-66
2022/07/13 08:14:09;;;;;;;;;;;25.20;99.90;;;;;;4790336;29;19978;-65
2022/07/13 08:16:35;;;;;;;;;;;25.40;99.90;;;;;;4793812;29;19925;-68
2022/07/13 08:19:00;;;;;;;;;;;25.40;99.90;;;;;;4785690;29;20470;-66
2022/07/13 08:21:26;;;;;;;;;;;25.40;99.90;;;;;;4805526;29;20287;-67
2022/07/13 08:23:51;;;;;;;;;;;25.40;99.90;;;;;;4797652;29;19925;-67
2022/07/13 08:26:18;;;;;;;;;;;25.40;99.90;;;;;;4805972;29;20267;-67
2022/07/13 08:28:44;;;;;;;;;;;25.50;99.90;;;;;;4806589;29;20327;-66
2022/07/13 08:31:09;;;;;;;;;;;25.50;99.90;;;;;;4783946;29;19973;-67
2022/07/13 08:39:03;;;;;;;;;;;25.90;99.90;;;;;;4788960;29;20340;-67
2022/07/13 08:41:28;;;;;;;;;;;26.00;99.90;;;;;;4805359;29;20007;-67
2022/07/13 08:43:54;;;;;;;;;;;26.00;99.90;;;;;;4804543;29;19948;-68
2022/07/13 08:46:21;;;;;;;;;;;26.00;99.90;;;;;;4804280;29;20019;-67
2022/07/13 08:48:47;;;;;;;;;;;26.00;99.90;;;;;;4802479;29;19925;-68
2022/07/13 08:51:13;;;;;;;;;;;26.00;99.90;;;;;;4789755;29;19932;-68
2022/07/13 08:53:38;;;;;;;;;;;26.10;99.90;;;;;;4802853;29;19929;-69
2022/07/13 08:56:04;;;;;;;;;;;26.20;99.90;;;;;;4781623;29;20279;-68
2022/07/13 08:58:30;;;;;;;;;;;26.40;99.90;;;;;;4805622;29;19925;-68
2022/07/13 09:00:56;;;;;;;;;;;26.40;99.90;;;;;;4804536;29;19936;-67
2022/07/13 09:03:21;;;;;;;;;;;26.50;99.90;;;;;;4790767;29;19929;-66
2022/07/13 09:05:47;;;;;;;;;;;26.60;99.90;;;;;;4785950;29;20029;-68
2022/07/13 09:08:12;;;;;;;;;;;26.60;99.90;;;;;;4796952;29;19931;-68
2022/07/13 09:10:50;;;;;;;;;;;26.60;99.90;;;;;;4789831;29;20008;-67
2022/07/13 09:13:32;;;;;;;;;;;26.70;99.90;;;;;;4788213;29;19955;-69
2022/07/13 09:16:11;;;;;;;;;;;26.60;99.90;;;;;;4805433;29;19925;-67
2022/07/13 09:18:37;;;;;;;;;;;26.70;99.90;;;;;;4801629;29;20334;-69
2022/07/13 09:21:02;;;;;;;;;;;26.80;99.90;;;;;;4805363;29;20011;-68
2022/07/13 09:23:31;;;;;;;;;;;26.90;99.90;;;;;;4794959;29;19929;-68
2022/07/13 09:25:56;;;;;;;;;;;27.00;99.90;;;;;;4789147;29;19925;-69
2022/07/13 09:28:22;;;;;;;;;;;27.00;99.90;;;;;;4788214;29;20428;-68
2022/07/13 09:30:48;;;;;;;;;;;27.00;99.90;;;;;;4807425;29;19932;-69
2022/07/13 09:33:13;;;;;;;;;;;27.00;99.90;;;;;;4806845;29;20016;-69
2022/07/13 09:35:39;;;;;;;;;;;27.10;99.90;;;;;;4792205;29;19982;-69
2022/07/13 09:38:04;;;;;;;;;;;27.20;99.90;;;;;;4791299;29;19933;-68
2022/07/13 09:40:30;;;;;;;;;;;27.40;99.90;;;;;;4807399;29;19932;-68
2022/07/13 09:48:24;;;;;;;;;;;27.40;99.90;;;;;;5108837;28;19933;-68
2022/07/13 09:50:54;;;;;;;;;;;27.50;99.90;;;;;;5091208;28;20448;-68
2022/07/13 09:53:23;;;;;;;;;;;27.60;99.90;;;;;;5096134;28;20330;-67
2022/07/13 09:55:51;;;;;;;;;;;27.60;99.90;;;;;;5111361;28;19955;-68
2022/07/13 09:58:18;;;;;;;;;;;27.60;99.90;;;;;;5108175;28;20372;-66
2022/07/13 10:00:44;;;;;;;;;;;27.60;99.90;;;;;;5109937;28;19929;-67
2022/07/13 10:03:09;;;;;;;;;;;27.70;99.90;;;;;;5102716;28;20263;-68
2022/07/13 10:05:35;;;;;;;;;;;27.80;99.90;;;;;;5110728;28;19925;-67
2022/07/13 10:08:01;;;;;;;;;;;27.90;99.90;;;;;;5090710;28;19975;-68
2022/07/13 10:10:26;;;;;;;;;;;28.00;99.90;;;;;;5109805;28;19969;-68
2022/07/13 10:12:54;;;;;;;;;;;28.10;99.90;;;;;;5108808;28;20269;-68
2022/07/13 10:15:20;;;;;;;;;;;28.10;99.90;;;;;;5109289;28;19924;-67
2022/07/13 10:17:47;;;;;;;;;;;28.10;99.90;;;;;;5103669;28;20085;-66
2022/07/13 10:20:19;;;;;;;;;;;28.10;99.90;;;;;;5093254;28;20339;-68
2022/07/13 10:22:46;;;;;;;;;;;28.30;99.90;;;;;;5092084;28;20027;-67
2022/07/13 10:25:12;;;;;;;;;;;28.50;99.90;;;;;;5110650;28;19931;-67
2022/07/13 10:27:41;;;;;;;;;;;28.50;98.90;;;;;;5106147;28;20398;-68
2022/07/13 10:30:08;;;;;;;;;;;28.60;98.40;;;;;;5110598;28;19931;-67
2022/07/13 10:32:38;;;;;;;;;;;28.30;97.50;;;;;;5101178;28;19931;-68
2022/07/13 10:35:11;;;;;;;;;;;28.00;90.10;;;;;;5105971;28;19927;-66
2022/07/13 10:37:55;;;;;;;;;;;28.00;87.30;;;;;;5110516;28;20352;-68
2022/07/13 10:40:21;;;;;;;;;;;27.80;84.30;;;;;;5108500;28;19924;-65
2022/07/13 10:43:10;;;;;;;;;;;27.60;88.50;;;;;;5110034;28;19950;-68
2022/07/13 10:45:38;;;;;;;;;;;27.50;91.80;;;;;;5083695;28;19970;-65
2022/07/13 10:48:24;;;;;;;;;;;27.70;94.20;;;;;;5092524;28;19928;-69
2022/07/13 10:50:52;;;;;;;;;;;27.80;98.40;;;;;;5091999;28;20829;-68
2022/07/13 10:53:19;;;;;;;;;;;28.10;87.60;;;;;;5085932;28;19966;-66
2022/07/13 10:55:48;;;;;;;;;;;28.10;92.00;;;;;;5101814;28;19979;-67
2022/07/13 10:58:35;;;;;;;;;;;28.30;96.70;;;;;;5089830;28;19954;-66
2022/07/13 11:01:02;;;;;;;;;;;28.30;79.40;;;;;;5083177;28;19932;-65
2022/07/13 11:03:27;;;;;;;;;;;28.30;68.90;;;;;;5079318;28;19924;-66
2022/07/13 11:06:02;;;;;;;;;;;28.40;99.90;;;;;;5076078;28;20384;-64
2022/07/13 11:08:28;;;;;;;;;;;28.20;70.50;;;;;;5073146;28;20392;-66
2022/07/13 11:11:13;;;;;;;;;;;28.00;82.80;;;;;;5082450;28;19931;-66
2022/07/13 11:13:39;;;;;;;;;;;27.80;70.00;;;;;;5087191;28;19928;-66
2022/07/13 11:16:06;;;;;;;;;;;27.90;92.30;;;;;;5094675;28;19924;-67
2022/07/13 11:18:32;;;;;;;;;;;27.80;68.30;;;;;;5091910;28;19924;-66
2022/07/13 11:20:57;;;;;;;;;;;27.70;83.00;;;;;;5092936;28;19991;-66
2022/07/13 11:26:13;;;;;;;;;;;27.70;90.00;;;;;;5082358;28;19924;-67
2022/07/13 11:28:54;;;;;;;;;;;27.60;74.60;;;;;;5094515;28;20076;-68
2022/07/13 11:31:20;;;;;;;;;;;27.70;78.60;;;;;;5107869;27;20375;-68
2022/07/13 11:33:49;;;;;;;;;;;27.90;72.00;;;;;;5091284;28;19950;-68
2022/07/13 11:36:24;;;;;;;;;;;28.00;71.20;;;;;;5095492;28;20387;-68
2022/07/13 11:38:50;;;;;;;;;;;28.30;68.60;;;;;;5093831;28;19924;-65
2022/07/13 11:41:18;;;;;;;;;;;28.30;71.30;;;;;;5081313;28;19924;-66
2022/07/13 11:43:47;;;;;;;;;;;28.50;74.30;;;;;;5099096;28;19967;-66
2022/07/13 11:46:12;;;;;;;;;;;28.50;67.90;;;;;;5114062;28;19943;-66
2022/07/13 11:48:38;;;;;;;;;;;28.40;64.60;;;;;;5095335;28;19932;-66
2022/07/13 11:51:09;;;;;;;;;;;28.40;73.50;;;;;;5112003;28;19939;-66
2022/07/13 11:53:35;;;;;;;;;;;28.50;83.60;;;;;;5109351;28;20306;-67
2022/07/13 11:56:04;;;;;;;;;;;28.80;65.80;;;;;;5116036;28;20006;-67
2022/07/13 11:58:31;;;;;;;;;;;28.90;64.30;;;;;;5113407;28;19928;-67
2022/07/13 12:00:58;;;;;;;;;;;28.60;59.20;;;;;;5093486;28;19932;-67
2022/07/13 12:03:33;;;;;;;;;;;28.30;58.70;;;;;;5094818;28;19943;-67
2022/07/13 12:05:59;;;;;;;;;;;28.20;58.10;;;;;;5115432;28;19931;-66
2022/07/13 12:08:25;;;;;;;;;;;28.30;63.00;;;;;;5112392;28;19934;-66
2022/07/13 12:10:51;;;;;;;;;;;28.30;62.10;;;;;;5106058;28;19924;-66
2022/07/13 12:13:17;;;;;;;;;;;28.40;67.10;;;;;;5114819;28;19931;-67
2022/07/13 12:15:43;;;;;;;;;;;28.40;64.30;;;;;;5113476;28;20303;-66
2022/07/13 12:18:10;;;;;;;;;;;28.50;62.30;;;;;;5075851;28;20032;-66
2022/07/13 12:20:37;;;;;;;;;;;28.30;60.80;;;;;;5103550;28;19931;-66
2022/07/13 12:23:04;;;;;;;;;;;28.30;63.20;;;;;;5094926;28;19930;-66
2022/07/13 12:25:33;;;;;;;;;;;28.20;66.90;;;;;;5096383;28;20018;-68
2022/07/13 12:27:59;;;;;;;;;;;28.10;69.00;;;;;;5112930;28;19968;-66
2022/07/13 12:30:25;;;;;;;;;;;28.10;70.90;;;;;;5112191;28;19934;-67
2022/07/13 12:32:55;;;;;;;;;;;28.10;70.10;;;;;;5094137;28;19989;-66
2022/07/13 12:35:20;;;;;;;;;;;28.10;69.20;;;;;;5093189;28;19928;-68
2022/07/13 12:37:49;;;;;;;;;;;28.10;71.00;;;;;;5106907;28;19977;-68
2022/07/13 12:40:34;;;;;;;;;;;28.00;79.10;;;;;;5091689;28;19982;-67
2022/07/13 12:43:00;;;;;;;;;;;28.00;70.40;;;;;;5113497;28;19947;-66
2022/07/13 12:45:29;;;;;;;;;;;28.20;72.70;;;;;;5090366;28;19932;-67
2022/07/13 12:47:54;;;;;;;;;;;28.30;71.20;;;;;;5097020;28;20372;-66
2022/07/13 12:50:29;;;;;;;;;;;28.10;67.80;;;;;;5111383;28;19930;-66
2022/07/13 12:53:01;;;;;;;;;;;28.10;73.30;;;;;;5108694;28;19971;-66
2022/07/13 12:55:26;;;;;;;;;;;28.10;77.30;;;;;;5114438;28;19923;-66
2022/07/13 12:57:52;;;;;;;;;;;28.00;72.00;;;;;;5102623;28;19924;-67
2022/07/13 13:00:24;;;;;;;;;;;28.00;83.20;;;;;;5090791;28;19949;-67
2022/07/13 13:02:50;;;;;;;;;;;28.10;92.50;;;;;;5099606;28;20376;-67
2022/07/13 13:05:15;;;;;;;;;;;28.10;90.80;;;;;;5091455;28;19925;-67
2022/07/13 13:07:42;;;;;;;;;;;28.10;84.90;;;;;;5111217;27;19947;-67
2022/07/13 13:10:11;;;;;;;;;;;28.20;80.30;;;;;;5092329;28;19970;-66
2022/07/13 13:13:03;;;;;;;;;;;28.10;85.80;;;;;;5091671;28;19970;-65
2022/07/13 13:15:36;;;;;;;;;;;27.90;89.90;;;;;;5086942;28;19976;-67
2022/07/13 13:18:02;;;;;;;;;;;27.70;82.50;;;;;;5093917;28;19935;-66
2022/07/13 13:20:27;;;;;;;;;;;27.60;91.20;;;;;;5091471;28;19920;-67
2022/07/13 13:22:56;;;;;;;;;;;27.70;92.30;;;;;;5092361;28;19920;-67
2022/07/13 13:25:21;;;;;;;;;;;27.70;94.80;;;;;;5074037;28;19943;-68
2022/07/13 13:27:47;;;;;;;;;;;27.70;95.00;;;;;;5073315;28;20276;-66
2022/07/13 13:32:57;;;;;;;;;;;27.50;94.70;;;;;;5087840;28;20237;-65
2022/07/13 13:35:22;;;;;;;;;;;27.30;99.30;;;;;;5091099;28;19935;-67
2022/07/13 13:37:48;;;;;;;;;;;27.20;99.10;;;;;;5091661;28;20427;-67
2022/07/13 13:40:14;;;;;;;;;;;27.30;97.30;;;;;;5092229;28;19925;-66
2022/07/13 13:42:39;;;;;;;;;;;27.30;98.10;;;;;;5086502;28;19928;-66
2022/07/13 13:45:05;;;;;;;;;;;27.20;98.70;;;;;;5091981;28;19924;-65
2022/07/13 13:47:30;;;;;;;;;;;27.20;95.70;;;;;;5090319;28;20311;-67
2022/07/13 13:49:56;;;;;;;;;;;27.20;95.50;;;;;;5092536;28;19924;-66
2022/07/13 13:52:21;;;;;;;;;;;27.20;94.30;;;;;;5092690;28;19924;-66
2022/07/13 13:54:47;;;;;;;;;;;27.20;95.80;;;;;;5090755;28;19928;-65
2022/07/13 13:57:12;;;;;;;;;;;27.10;92.60;;;;;;5095667;28;19930;-66
2022/07/13 14:06:15;;;;;;;;;;;27.20;94.70;;;;;;5090680;28;20300;-67
2022/07/13 14:12:53;;;;;;;;;;;26.90;99.90;;;;;;5015954;28;20055;-66
2022/07/13 14:18:51;;;;;;;;;;;27.00;99.90;;;;;;4996222;28;19961;-66
2022/07/13 14:21:19;;;;;;;;;;;27.10;97.80;;;;;;4976004;28;19928;-65
2022/07/13 14:23:45;;;;;;;;;;;27.00;94.50;;;;;;5060408;28;19920;-67
2022/07/13 14:26:10;;;;;;;;;;;26.90;99.20;;;;;;5055326;28;19925;-66
2022/07/13 14:32:51;;;;;;;;;;;26.30;95.00;;;;;;5062608;28;19963;-65
2022/07/13 14:38:58;;;;;;;;;;;26.40;99.90;;;;;;5040766;28;20087;-66
2022/07/13 14:41:32;;;;;;;;;;;26.30;99.10;;;;;;5069827;28;19920;-66
2022/07/13 14:44:13;;;;;;;;;;;26.10;99.40;;;;;;5073271;28;20024;-67
2022/07/13 14:49:52;;;;;;;;;;;26.20;99.90;;;;;;5087175;28;19963;-67
2022/07/13 14:52:18;;;;;;;;;;;26.40;99.90;;;;;;5073410;28;20411;-66
2022/07/13 14:54:43;;;;;;;;;;;26.40;99.90;;;;;;5072495;28;20315;-65
2022/07/13 14:57:09;;;;;;;;;;;26.30;99.90;;;;;;5072328;28;20335;-65
2022/07/13 14:59:34;;;;;;;;;;;26.30;99.70;;;;;;5074024;28;20035;-67